createdAt,value
2024-04-26T00:03:38.932Z,15.21
2024-04-26T00:08:44.520Z,15.08
2024-04-26T00:13:52.442Z,15.15
2024-04-26T00:18:57.628Z,15.15
2024-04-26T00:24:02.816Z,15.26
2024-04-26T00:29:10.676Z,15.04
2024-04-26T00:34:16.231Z,15.19
2024-04-26T00:39:21.560Z,15.27
2024-04-26T00:44:29.499Z,15.25
2024-04-26T00:49:34.965Z,15.22
2024-04-26T00:54:40.166Z,15.09
2024-04-26T00:59:48.276Z,15.09
2024-04-26T01:04:53.741Z,15.13
2024-04-26T01:09:58.930Z,15.07
2024-04-26T01:15:07.213Z,14.98
2024-04-26T01:20:12.595Z,15.04
2024-04-26T01:25:20.627Z,14.99
2024-04-26T01:30:27.367Z,14.90
2024-04-26T01:35:32.543Z,14.88
2024-04-26T01:40:40.481Z,14.80
2024-04-26T01:45:45.638Z,14.70
2024-04-26T01:50:50.909Z,14.77
2024-04-26T01:55:58.813Z,14.72
2024-04-26T02:01:04.097Z,14.78
2024-04-26T02:06:09.710Z,14.73
2024-04-26T02:11:17.606Z,14.78
2024-04-26T02:16:22.971Z,14.78
2024-04-26T02:21:28.194Z,14.86
2024-04-26T02:26:36.994Z,14.91
2024-04-26T02:31:42.945Z,14.80
2024-04-26T02:36:48.344Z,14.89
2024-04-26T02:41:56.414Z,14.82
2024-04-26T02:47:01.657Z,14.88
2024-04-26T02:52:06.918Z,14.87
2024-04-26T02:57:17.085Z,14.92
2024-04-26T03:02:22.441Z,14.86
2024-04-26T03:07:29.590Z,14.97
2024-04-26T03:12:37.541Z,14.99
2024-04-26T03:17:42.925Z,14.97
2024-04-26T03:22:49.468Z,14.90
2024-04-26T03:27:57.548Z,14.77
2024-04-26T03:33:03.641Z,14.74
2024-04-26T03:38:10.580Z,14.80
2024-04-26T03:43:18.975Z,14.66
2024-04-26T03:48:24.204Z,14.74
2024-04-26T03:53:29.554Z,14.69
2024-04-26T03:58:40.956Z,14.60
2024-04-26T04:03:46.344Z,14.67
2024-04-26T04:08:51.748Z,14.75
2024-04-26T04:13:59.626Z,14.64
2024-04-26T04:19:04.996Z,14.55
2024-04-26T04:24:10.634Z,14.59
2024-04-26T04:29:18.617Z,14.56
2024-04-26T04:34:24.046Z,14.54
2024-04-26T04:39:29.410Z,14.54
2024-04-26T04:44:37.408Z,14.64
2024-04-26T04:49:42.560Z,14.47
2024-04-26T04:54:47.743Z,14.46
2024-04-26T04:59:55.739Z,14.43
2024-04-26T05:05:01.190Z,14.50
2024-04-26T05:10:06.866Z,14.52
2024-04-26T05:15:14.733Z,14.42
2024-04-26T05:20:19.914Z,14.39
2024-04-26T05:25:25.496Z,14.46
2024-04-26T05:30:33.316Z,14.53
2024-04-26T05:35:39.003Z,14.38
2024-04-26T05:40:46.142Z,14.45
2024-04-26T05:45:55.332Z,14.36
2024-04-26T05:51:01.159Z,14.30
2024-04-26T05:56:07.061Z,14.38
2024-04-26T06:01:15.635Z,14.20
2024-04-26T06:06:21.406Z,14.27
2024-04-26T06:11:26.789Z,13.97
2024-04-26T06:16:34.765Z,14.09
2024-04-26T06:21:40.574Z,14.27
2024-04-26T06:26:45.850Z,14.36
2024-04-26T06:31:57.365Z,14.20
2024-04-26T06:37:05.268Z,14.20
2024-04-26T06:42:10.862Z,14.04
2024-04-26T06:47:20.471Z,13.98
2024-04-26T06:52:26.208Z,14.21
2024-04-26T06:57:32.133Z,14.34
2024-04-26T07:02:40.939Z,14.36
2024-04-26T07:07:49.915Z,14.32
2024-04-26T07:12:55.496Z,14.30
2024-04-26T07:18:04.103Z,14.30
2024-04-26T07:23:10.002Z,14.45
2024-04-26T07:28:15.521Z,14.51
2024-04-26T07:33:27.005Z,14.69
2024-04-26T07:38:32.377Z,14.75
2024-04-26T07:43:39.852Z,14.78
2024-04-26T07:48:48.485Z,14.88
2024-04-26T07:53:54.389Z,15.09
2024-04-26T07:59:02.738Z,15.26
2024-04-26T08:04:11.674Z,15.25
2024-04-26T08:09:17.526Z,15.53
2024-04-26T08:14:23.355Z,15.75
2024-04-26T08:19:31.866Z,16.07
2024-04-26T08:24:44.658Z,16.66
2024-04-26T08:29:57.127Z,16.66
2024-04-26T08:35:05.765Z,16.82
2024-04-26T08:40:11.847Z,16.84
2024-04-26T08:45:22.060Z,17.04
2024-04-26T08:50:33.154Z,16.85
2024-04-26T08:55:39.130Z,17.03
2024-04-26T09:00:48.700Z,16.89
2024-04-26T09:05:57.938Z,16.93
2024-04-26T09:11:04.933Z,17.03
2024-04-26T09:16:11.471Z,17.10
2024-04-26T09:21:21.922Z,17.16
2024-04-26T09:26:28.183Z,17.47
2024-04-26T09:31:34.123Z,17.79
2024-04-26T09:36:43.692Z,17.89
2024-04-26T09:41:51.387Z,17.79
2024-04-26T09:46:58.724Z,18.11
2024-04-26T09:52:09.356Z,18.17
2024-04-26T09:57:15.250Z,18.38
2024-04-26T10:02:24.839Z,18.08
2024-04-26T10:07:33.013Z,18.06
2024-04-26T10:12:38.250Z,17.99
2024-04-26T10:17:55.927Z,17.87
2024-04-26T10:23:12.051Z,17.66
2024-04-26T10:28:18.169Z,17.70
2024-04-26T10:33:25.007Z,17.62
2024-04-26T10:38:33.060Z,17.75
2024-04-26T10:43:39.042Z,17.87
2024-04-26T10:48:44.848Z,17.66
2024-04-26T10:53:53.820Z,17.38
2024-04-26T10:58:59.220Z,17.34
2024-04-26T11:04:04.493Z,17.13
2024-04-26T11:09:14.748Z,17.15
2024-04-26T11:14:21.433Z,16.80
2024-04-26T11:19:31.970Z,17.05
2024-04-26T11:24:40.718Z,16.95
2024-04-26T11:29:46.310Z,17.57
2024-04-26T11:34:52.376Z,17.82
2024-04-26T11:40:01.118Z,17.82
2024-04-26T11:45:06.959Z,17.84
2024-04-26T11:50:12.889Z,17.69
2024-04-26T11:55:23.357Z,17.96
2024-04-26T12:00:29.211Z,18.29
2024-04-26T12:05:38.185Z,18.43
2024-04-26T12:10:46.715Z,18.78
2024-04-26T12:15:52.653Z,19.67
2024-04-26T12:20:58.489Z,19.97
2024-04-26T12:26:07.199Z,20.26
2024-04-26T12:31:12.674Z,20.30
2024-04-26T12:36:18.072Z,19.84
2024-04-26T12:41:26.096Z,19.62
2024-04-26T12:46:31.323Z,20.16
2024-04-26T12:51:36.452Z,20.22
2024-04-26T12:56:44.494Z,20.00
2024-04-26T13:01:49.713Z,19.92
2024-04-26T13:06:56.290Z,19.40
2024-04-26T13:12:04.312Z,20.27
2024-04-26T13:17:09.719Z,20.33
2024-04-26T13:22:16.148Z,20.53
2024-04-26T13:27:25.464Z,21.10
2024-04-26T13:32:30.700Z,20.03
2024-04-26T13:37:35.898Z,20.25
2024-04-26T13:42:43.830Z,20.84
2024-04-26T13:47:49.497Z,20.64
2024-04-26T13:52:54.876Z,20.81
2024-04-26T13:58:03.689Z,19.93
2024-04-26T14:03:09.453Z,19.70
2024-04-26T14:08:16.448Z,19.92
2024-04-26T14:13:24.376Z,20.32
2024-04-26T14:18:29.717Z,20.14
2024-04-26T14:23:35.845Z,19.47
2024-04-26T14:28:43.813Z,19.38
2024-04-26T14:33:50.374Z,18.65
2024-04-26T14:38:55.605Z,17.71
2024-04-26T14:44:03.549Z,16.74
2024-04-26T14:49:08.844Z,16.31
2024-04-26T14:54:13.997Z,16.07
2024-04-26T14:59:22.008Z,15.90
2024-04-26T15:04:27.242Z,15.88
2024-04-26T15:09:32.431Z,15.97
2024-04-26T15:14:40.300Z,16.21
2024-04-26T15:19:46.250Z,16.56
2024-04-26T15:24:51.487Z,16.64
2024-04-26T15:29:59.362Z,16.41
2024-04-26T15:35:05.366Z,16.48
2024-04-26T15:40:11.846Z,16.24
2024-04-26T15:45:20.143Z,16.09
2024-04-26T15:50:25.375Z,16.12
2024-04-26T15:55:31.178Z,16.27
2024-04-26T16:00:39.310Z,16.11
2024-04-26T16:05:44.710Z,16.27
2024-04-26T16:10:50.124Z,16.44
2024-04-26T16:15:58.099Z,16.58
2024-04-26T16:21:03.309Z,16.35
2024-04-26T16:26:18.202Z,16.41
2024-04-26T16:31:26.302Z,16.21
2024-04-26T16:36:32.680Z,16.34
2024-04-26T16:41:39.089Z,16.42
2024-04-26T16:46:49.104Z,16.37
2024-04-26T16:51:54.795Z,16.11
2024-04-26T16:56:59.969Z,15.98
2024-04-26T17:02:08.641Z,15.82
2024-04-26T17:07:14.933Z,15.66
2024-04-26T17:12:20.081Z,15.40
2024-04-26T17:17:28.394Z,15.35
2024-04-26T17:22:33.660Z,15.21
2024-04-26T17:27:40.175Z,15.02
2024-04-26T17:32:48.139Z,14.96
2024-04-26T17:37:53.486Z,14.60
2024-04-26T17:42:58.707Z,14.63
2024-04-26T17:48:07.550Z,14.51
2024-04-26T17:53:12.828Z,14.44
2024-04-26T17:58:19.917Z,14.22
2024-04-26T18:03:28.026Z,14.04
2024-04-26T18:08:33.215Z,14.14
2024-04-26T18:13:38.370Z,14.23
2024-04-26T18:18:46.414Z,14.32
2024-04-26T18:23:51.582Z,14.28
2024-04-26T18:28:57.165Z,14.24
2024-04-26T18:34:05.164Z,14.25
2024-04-26T18:39:10.354Z,14.23
2024-04-26T18:44:16.888Z,14.28
2024-04-26T18:49:24.836Z,14.45
2024-04-26T18:54:30.034Z,14.53
2024-04-26T18:59:35.679Z,14.53
2024-04-26T19:04:44.243Z,14.58
2024-04-26T19:09:50.524Z,14.67
2024-04-26T19:14:56.091Z,14.72
2024-04-26T19:20:05.392Z,14.39
2024-04-26T19:25:11.177Z,14.16
2024-04-26T19:30:18.393Z,14.05
2024-04-26T19:35:26.277Z,13.97
2024-04-26T19:40:31.476Z,13.76
2024-04-26T19:45:36.652Z,13.77
2024-04-26T19:50:44.484Z,13.78
2024-04-26T19:56:05.334Z,13.89
2024-04-26T20:01:10.862Z,13.93
2024-04-26T20:06:18.702Z,13.90
2024-04-26T20:11:24.067Z,13.94
2024-04-26T20:16:30.086Z,14.01
2024-04-26T20:21:37.947Z,14.17
2024-04-26T20:26:43.798Z,14.25
2024-04-26T20:31:49.170Z,14.10
2024-04-26T20:36:57.428Z,14.04
2024-04-26T20:42:02.602Z,14.08
2024-04-26T20:47:08.136Z,14.09
2024-04-26T20:52:15.966Z,13.91
2024-04-26T20:57:21.113Z,13.51
2024-04-26T21:02:26.350Z,12.98
2024-04-26T21:07:37.563Z,12.61
2024-04-26T21:12:42.936Z,12.64
2024-04-26T21:17:48.200Z,12.79
2024-04-26T21:22:56.062Z,12.46
2024-04-26T21:28:02.951Z,12.74
2024-04-26T21:33:09.046Z,12.73
2024-04-26T21:38:16.967Z,12.63
2024-04-26T21:43:22.179Z,12.71
2024-04-26T21:48:27.436Z,12.64
2024-04-26T21:53:35.324Z,12.48
2024-04-26T21:58:43.193Z,12.52
2024-04-26T22:03:48.442Z,12.64
2024-04-26T22:08:56.387Z,12.36
2024-04-26T22:14:01.591Z,12.44
2024-04-26T22:19:06.991Z,12.66
2024-04-26T22:24:14.895Z,12.63
2024-04-26T22:29:20.315Z,12.31
2024-04-26T22:34:25.451Z,12.23
2024-04-26T22:39:34.779Z,12.17
2024-04-26T22:44:41.141Z,12.10
2024-04-26T22:49:46.343Z,12.13
2024-04-26T22:54:54.301Z,12.14
2024-04-26T22:59:59.475Z,12.20
2024-04-26T23:05:05.179Z,12.24
2024-04-26T23:10:13.296Z,12.36
2024-04-26T23:15:18.615Z,12.48
2024-04-26T23:20:23.787Z,12.53
2024-04-26T23:25:31.620Z,12.50
2024-04-26T23:30:36.763Z,12.43
2024-04-26T23:35:41.944Z,12.45
2024-04-26T23:40:49.820Z,12.37
2024-04-26T23:45:55.040Z,12.52
2024-04-26T23:51:00.227Z,12.48
2024-04-26T23:56:09.310Z,12.30
